createdAt,value
2022-10-23T00:01:44.597Z,7.87
2022-10-23T00:04:47.680Z,7.90
2022-10-23T00:07:52.120Z,7.40
2022-10-23T00:10:55.307Z,7.00
2022-10-23T00:14:01.620Z,8.27
2022-10-23T00:17:04.851Z,7.40
2022-10-23T00:20:09.573Z,7.47
2022-10-23T00:23:12.766Z,7.47
2022-10-23T00:26:16.080Z,8.30
2022-10-23T00:29:20.494Z,7.60
2022-10-23T00:32:23.739Z,7.03
2022-10-23T00:35:27.087Z,8.23
2022-10-23T00:38:30.152Z,8.10
2022-10-23T00:41:33.431Z,7.83
2022-10-23T00:45:10.603Z,7.47
2022-10-23T00:48:15.677Z,7.40
2022-10-23T00:51:19.127Z,7.53
2022-10-23T00:54:26.694Z,7.70
2022-10-23T00:57:29.861Z,7.30
2022-10-23T01:00:44.253Z,6.87
2022-10-23T01:03:50.009Z,7.20
2022-10-23T01:07:04.871Z,7.83
2022-10-23T01:10:15.149Z,7.07
2022-10-23T01:13:27.581Z,6.93
2022-10-23T01:16:39.088Z,7.50
2022-10-23T01:19:56.878Z,7.30
2022-10-23T01:23:32.178Z,7.30
2022-10-23T01:26:45.539Z,7.53
2022-10-23T01:29:59.189Z,6.83
2022-10-23T01:33:08.273Z,7.27
2022-10-23T01:36:15.354Z,8.23
2022-10-23T01:39:22.100Z,7.00
2022-10-23T01:42:30.403Z,7.40
2022-10-23T01:45:41.049Z,7.50
2022-10-23T01:48:49.393Z,7.17
2022-10-23T01:51:56.207Z,7.70
2022-10-23T01:55:02.340Z,7.67
2022-10-23T01:58:08.533Z,7.33
2022-10-23T02:01:14.884Z,7.10
2022-10-23T02:04:24.882Z,7.93
2022-10-23T02:07:28.379Z,7.20
2022-10-23T02:10:36.130Z,7.83
2022-10-23T02:13:45.353Z,7.43
2022-10-23T02:16:53.075Z,7.93
2022-10-23T02:20:01.676Z,6.80
2022-10-23T02:23:18.060Z,6.97
2022-10-23T02:26:25.751Z,7.30
2022-10-23T02:29:35.026Z,7.47
2022-10-23T02:32:45.926Z,8.10
2022-10-23T02:35:50.070Z,7.63
2022-10-23T02:38:53.284Z,7.17
2022-10-23T02:42:04.025Z,7.33
2022-10-23T02:45:13.267Z,7.23
2022-10-23T02:48:23.923Z,7.50
2022-10-23T02:51:36.285Z,7.57
2022-10-23T02:54:52.161Z,8.00
2022-10-23T02:58:04.403Z,7.10
2022-10-23T03:01:12.626Z,6.77
2022-10-23T03:04:18.693Z,7.90
2022-10-23T03:07:22.372Z,7.33
2022-10-23T03:10:25.527Z,7.63
2022-10-23T03:13:28.574Z,6.93
2022-10-23T03:16:31.656Z,7.40
2022-10-23T03:19:36.375Z,7.00
2022-10-23T03:22:40.199Z,7.00
2022-10-23T03:25:43.551Z,7.60
2022-10-23T03:28:46.704Z,7.30
2022-10-23T03:31:49.955Z,7.70
2022-10-23T03:34:54.500Z,7.60
2022-10-23T03:37:57.615Z,7.20
2022-10-23T03:41:00.816Z,7.30
2022-10-23T03:47:10.039Z,6.67
2022-10-23T03:50:14.839Z,7.07
2022-10-23T03:53:18.300Z,6.67
2022-10-23T03:56:21.380Z,7.13
2022-10-23T03:59:24.580Z,7.37
2022-10-23T04:02:28.583Z,6.97
2022-10-23T04:05:34.296Z,7.60
2022-10-23T04:08:37.598Z,7.60
2022-10-23T04:11:41.456Z,7.30
2022-10-23T04:14:44.725Z,7.43
2022-10-23T04:17:47.816Z,7.33
2022-10-23T04:20:53.341Z,7.10
2022-10-23T04:23:56.378Z,7.80
2022-10-23T04:26:59.516Z,7.50
2022-10-23T04:30:03.790Z,7.00
2022-10-23T04:33:06.835Z,7.00
2022-10-23T04:36:11.600Z,8.17
2022-10-23T04:39:14.754Z,8.10
2022-10-23T04:42:18.192Z,7.63
2022-10-23T04:45:21.597Z,7.00
2022-10-23T04:48:27.011Z,7.77
2022-10-23T04:51:34.095Z,7.10
2022-10-23T04:54:38.475Z,7.23
2022-10-23T04:57:41.862Z,7.30
2022-10-23T05:00:45.055Z,6.77
2022-10-23T05:03:48.304Z,6.80
2022-10-23T05:06:53.604Z,7.10
2022-10-23T05:09:58.675Z,6.97
2022-10-23T05:13:01.828Z,7.20
2022-10-23T05:16:04.994Z,7.30
2022-10-23T05:19:12.139Z,6.57
2022-10-23T05:22:17.062Z,7.97
2022-10-23T05:25:20.350Z,6.80
2022-10-23T05:28:23.466Z,7.33
2022-10-23T05:31:26.806Z,7.43
2022-10-23T05:34:33.196Z,6.50
2022-10-23T05:37:39.623Z,7.00
2022-10-23T05:40:42.968Z,7.83
2022-10-23T05:43:48.590Z,7.40
2022-10-23T05:46:51.720Z,7.13
2022-10-23T05:49:54.824Z,6.33
2022-10-23T05:52:59.455Z,7.63
2022-10-23T05:56:06.918Z,6.80
2022-10-23T05:59:10.900Z,6.70
2022-10-23T06:02:14.161Z,6.63
2022-10-23T06:05:17.326Z,7.00
2022-10-23T06:08:21.810Z,6.93
2022-10-23T06:11:25.312Z,6.50
2022-10-23T06:14:28.576Z,7.10
2022-10-23T06:17:31.847Z,7.60
2022-10-23T06:20:37.987Z,6.23
2022-10-23T06:23:43.969Z,6.90
2022-10-23T06:26:47.762Z,7.40
2022-10-23T06:29:51.376Z,6.70
2022-10-23T06:32:55.663Z,7.30
2022-10-23T06:35:58.786Z,7.20
2022-10-23T06:39:03.760Z,6.57
2022-10-23T06:42:07.320Z,6.10
2022-10-23T06:45:10.746Z,6.20
2022-10-23T06:48:13.940Z,6.13
2022-10-23T06:51:18.800Z,6.00
2022-10-23T06:54:23.280Z,6.33
2022-10-23T06:57:26.424Z,7.00
2022-10-23T07:00:29.723Z,6.17
2022-10-23T07:03:34.337Z,6.50
2022-10-23T07:06:37.390Z,6.50
2022-10-23T07:09:42.464Z,6.63
2022-10-23T07:12:47.807Z,6.70
2022-10-23T07:15:50.932Z,6.20
2022-10-23T07:18:59.839Z,5.73
2022-10-23T07:22:02.934Z,5.80
2022-10-23T07:25:08.926Z,5.87
2022-10-23T07:28:12.195Z,6.37
2022-10-23T07:31:18.463Z,6.50
2022-10-23T07:34:21.942Z,6.70
2022-10-23T07:37:25.355Z,5.80
2022-10-23T07:40:30.045Z,6.30
2022-10-23T07:43:34.215Z,5.63
2022-10-23T07:46:37.751Z,6.37
2022-10-23T07:49:40.957Z,6.17
2022-10-23T07:52:44.344Z,6.13
2022-10-23T07:55:55.202Z,5.77
2022-10-23T07:58:58.767Z,6.57
2022-10-23T08:02:02.054Z,6.03
2022-10-23T08:05:05.638Z,6.07
2022-10-23T08:08:08.776Z,5.70
2022-10-23T08:11:15.490Z,5.50
2022-10-23T08:14:18.621Z,5.30
2022-10-23T08:17:24.058Z,5.63
2022-10-23T08:20:30.685Z,5.50
2022-10-23T08:23:34.123Z,5.63
2022-10-23T08:26:38.970Z,5.60
2022-10-23T08:29:42.078Z,6.00
2022-10-23T08:32:45.176Z,5.37
2022-10-23T08:35:48.420Z,5.97
2022-10-23T08:38:53.705Z,5.57
2022-10-23T08:41:59.047Z,5.43
2022-10-23T08:45:07.929Z,5.47
2022-10-23T08:48:19.982Z,5.60
2022-10-23T08:51:26.668Z,5.30
2022-10-23T08:54:35.286Z,5.77
2022-10-23T08:57:44.982Z,5.10
2022-10-23T09:00:50.752Z,5.20
2022-10-23T09:03:53.930Z,5.00
2022-10-23T09:07:06.665Z,5.10
2022-10-23T09:10:31.067Z,4.83
2022-10-23T09:13:59.393Z,5.50
2022-10-23T09:17:15.978Z,4.83
2022-10-23T09:20:22.508Z,5.47
2022-10-23T09:23:26.086Z,5.10
2022-10-23T09:26:29.185Z,4.60
2022-10-23T09:29:36.188Z,4.97
2022-10-23T09:32:40.063Z,5.17
2022-10-23T09:35:54.678Z,5.00
2022-10-23T09:39:00.122Z,4.90
2022-10-23T09:42:16.046Z,4.50
2022-10-23T09:45:29.805Z,6.20
2022-10-23T09:48:33.899Z,4.83
2022-10-23T09:51:37.136Z,4.97
2022-10-23T09:54:46.607Z,5.00
2022-10-23T09:57:50.689Z,5.00
2022-10-23T10:00:55.814Z,4.67
2022-10-23T10:03:58.998Z,4.67
2022-10-23T10:07:03.667Z,4.27
2022-10-23T10:10:15.084Z,4.20
2022-10-23T10:13:37.394Z,5.87
2022-10-23T10:16:52.461Z,5.70
2022-10-23T10:20:18.352Z,4.73
2022-10-23T10:23:33.290Z,4.70
2022-10-23T10:26:44.860Z,6.77
2022-10-23T10:30:03.017Z,8.17
2022-10-23T10:33:18.790Z,4.03
2022-10-23T10:36:42.126Z,6.97
2022-10-23T10:39:53.983Z,5.40
2022-10-23T10:43:21.968Z,8.27
2022-10-23T10:46:32.512Z,6.43
2022-10-23T10:49:41.892Z,8.67
2022-10-23T10:52:54.366Z,8.47
2022-10-23T10:56:01.398Z,6.47
2022-10-23T10:59:12.231Z,8.90
2022-10-23T11:02:27.071Z,9.70
2022-10-23T11:05:50.655Z,8.83
2022-10-23T11:09:04.010Z,7.50
2022-10-23T11:12:20.766Z,10.80
2022-10-23T11:15:29.935Z,4.60
2022-10-23T11:18:35.127Z,4.87
2022-10-23T11:21:45.138Z,5.20
2022-10-23T11:25:09.710Z,5.50
2022-10-23T11:28:27.647Z,2.83
2022-10-23T11:31:40.396Z,3.50
2022-10-23T11:35:12.854Z,5.97
2022-10-23T11:38:21.422Z,3.80
2022-10-23T11:41:27.395Z,3.30
2022-10-23T11:44:43.226Z,3.27
2022-10-23T11:47:46.335Z,3.47
2022-10-23T11:50:55.076Z,4.60
2022-10-23T11:54:27.337Z,3.60
2022-10-23T12:00:37.071Z,4.80
2022-10-23T12:03:52.011Z,3.07
2022-10-23T12:07:00.000Z,3.63
2022-10-23T12:10:07.482Z,3.20
2022-10-23T12:13:30.500Z,3.40
2022-10-23T12:16:37.830Z,3.70
2022-10-23T12:19:49.194Z,3.23
2022-10-23T12:23:04.344Z,3.67
2022-10-23T12:26:43.732Z,3.20
2022-10-23T12:30:04.049Z,2.93
2022-10-23T12:33:17.118Z,2.90
2022-10-23T12:36:52.875Z,2.70
2022-10-23T12:39:57.244Z,3.90
2022-10-23T12:43:03.008Z,3.40
2022-10-23T12:46:19.499Z,3.60
2022-10-23T12:49:25.131Z,5.10
2022-10-23T12:52:28.236Z,4.87
2022-10-23T12:55:47.786Z,4.20
2022-10-23T12:58:55.547Z,4.70
2022-10-23T13:01:58.761Z,5.90
2022-10-23T13:05:04.652Z,5.33
2022-10-23T13:08:10.995Z,4.77
2022-10-23T13:11:18.159Z,6.63
2022-10-23T13:14:39.449Z,4.83
2022-10-23T13:17:47.361Z,4.40
2022-10-23T13:20:59.530Z,7.50
2022-10-23T13:24:02.796Z,5.30
2022-10-23T13:27:26.975Z,4.17
2022-10-23T13:30:34.626Z,4.87
2022-10-23T13:33:40.144Z,3.90
2022-10-23T13:36:53.672Z,5.20
2022-10-23T13:40:04.714Z,4.63
2022-10-23T13:43:15.795Z,4.20
2022-10-23T13:46:21.582Z,4.50
2022-10-23T13:49:24.647Z,4.00
2022-10-23T13:52:27.812Z,4.53
2022-10-23T13:55:31.003Z,3.40
2022-10-23T13:58:34.053Z,4.10
2022-10-23T14:01:38.777Z,3.70
2022-10-23T14:04:41.955Z,3.43
2022-10-23T14:07:45.281Z,4.03
2022-10-23T14:10:48.682Z,3.53
2022-10-23T14:13:52.822Z,4.27
2022-10-23T14:16:57.624Z,3.63
2022-10-23T14:20:02.209Z,4.70
2022-10-23T14:23:08.268Z,3.50
2022-10-23T14:26:14.525Z,4.53
2022-10-23T14:29:22.897Z,3.40
2022-10-23T14:32:28.443Z,3.87
2022-10-23T14:35:31.587Z,3.87
2022-10-23T14:38:34.695Z,3.40
2022-10-23T14:41:40.489Z,4.30
2022-10-23T14:44:45.059Z,3.50
2022-10-23T14:47:49.997Z,3.93
2022-10-23T14:50:53.492Z,3.20
2022-10-23T14:54:00.875Z,3.50
2022-10-23T14:57:04.955Z,2.87
2022-10-23T15:00:09.291Z,2.50
2022-10-23T15:03:13.807Z,3.77
2022-10-23T15:06:18.356Z,6.13
2022-10-23T15:09:21.639Z,3.53
2022-10-23T15:12:25.579Z,3.10
2022-10-23T15:15:28.652Z,2.83
2022-10-23T15:18:33.943Z,2.93
2022-10-23T15:21:37.386Z,4.57
2022-10-23T15:24:40.483Z,2.60
2022-10-23T15:27:44.095Z,3.80
2022-10-23T15:30:47.398Z,3.17
2022-10-23T15:33:51.916Z,7.47
2022-10-23T15:36:56.075Z,2.87
2022-10-23T15:40:04.954Z,3.00
2022-10-23T15:43:11.310Z,3.30
2022-10-23T15:46:16.012Z,3.40
2022-10-23T15:49:22.465Z,4.53
2022-10-23T15:52:25.818Z,4.30
2022-10-23T15:55:29.254Z,3.50
2022-10-23T15:58:32.393Z,3.50
2022-10-23T16:01:35.644Z,3.30
2022-10-23T16:04:40.468Z,3.53
2022-10-23T16:07:43.680Z,3.97
2022-10-23T16:10:46.745Z,7.50
2022-10-23T16:13:49.847Z,4.57
2022-10-23T16:16:53.390Z,3.77
2022-10-23T16:19:57.809Z,4.47
2022-10-23T16:23:01.077Z,4.13
2022-10-23T16:26:05.606Z,3.60
2022-10-23T16:29:10.475Z,4.87
2022-10-23T16:32:13.651Z,3.57
2022-10-23T16:35:18.300Z,4.30
2022-10-23T16:38:21.309Z,4.67
2022-10-23T16:41:24.437Z,5.53
2022-10-23T16:44:27.895Z,4.17
2022-10-23T16:47:33.071Z,4.00
2022-10-23T16:53:48.571Z,6.50
2022-10-23T16:56:52.294Z,9.10
2022-10-23T16:59:55.384Z,8.00
2022-10-23T17:02:58.655Z,6.73
2022-10-23T17:06:07.364Z,6.63
2022-10-23T17:09:13.563Z,7.60
2022-10-23T17:12:17.812Z,9.37
2022-10-23T17:15:21.719Z,8.37
2022-10-23T17:18:24.999Z,10.47
2022-10-23T17:21:33.955Z,10.40
2022-10-23T17:24:53.174Z,11.30
2022-10-23T17:27:57.551Z,10.30
2022-10-23T17:31:01.620Z,11.13
2022-10-23T17:34:07.046Z,10.53
2022-10-23T17:37:13.380Z,11.93
2022-10-23T17:40:17.992Z,12.03
2022-10-23T17:43:24.983Z,11.03
2022-10-23T17:46:29.359Z,11.93
2022-10-23T17:49:32.441Z,12.10
2022-10-23T17:52:37.790Z,12.40
2022-10-23T17:55:42.605Z,12.03
2022-10-23T17:58:47.018Z,12.23
2022-10-23T18:01:50.945Z,12.60
2022-10-23T18:04:54.153Z,12.23
2022-10-23T18:07:58.622Z,12.50
2022-10-23T18:11:04.419Z,11.57
2022-10-23T18:14:08.209Z,11.50
2022-10-23T18:17:11.923Z,12.23
2022-10-23T18:20:16.379Z,11.70
2022-10-23T18:23:21.147Z,12.20
2022-10-23T18:26:27.563Z,12.17
2022-10-23T18:29:31.794Z,12.93
2022-10-23T18:32:34.974Z,14.33
2022-10-23T18:35:38.055Z,13.00
2022-10-23T18:38:43.100Z,12.80
2022-10-23T18:41:47.481Z,12.60
2022-10-23T18:44:52.437Z,13.47
2022-10-23T18:47:57.514Z,12.43
2022-10-23T18:51:00.887Z,12.77
2022-10-23T18:54:07.552Z,11.33
2022-10-23T18:57:10.843Z,12.83
2022-10-23T19:00:15.080Z,13.33
2022-10-23T19:03:18.153Z,13.63
2022-10-23T19:06:22.483Z,12.70
2022-10-23T19:09:26.917Z,13.07
2022-10-23T19:12:30.459Z,12.53
2022-10-23T19:15:34.857Z,14.00
2022-10-23T19:18:39.112Z,13.23
2022-10-23T19:21:43.689Z,12.23
2022-10-23T19:24:52.043Z,12.20
2022-10-23T19:27:57.120Z,13.00
2022-10-23T19:31:01.817Z,12.80
2022-10-23T19:34:04.861Z,12.40
2022-10-23T19:37:08.294Z,13.00
2022-10-23T19:40:16.767Z,12.07
2022-10-23T19:43:20.239Z,12.77
2022-10-23T19:46:23.639Z,13.17
2022-10-23T19:49:26.821Z,12.63
2022-10-23T19:52:30.137Z,13.10
2022-10-23T19:55:35.891Z,12.07
2022-10-23T19:58:39.221Z,11.73
2022-10-23T20:01:46.321Z,12.47
2022-10-23T20:04:52.540Z,12.20
2022-10-23T20:07:56.444Z,11.53
2022-10-23T20:11:03.615Z,11.93
2022-10-23T20:14:10.639Z,11.23
2022-10-23T20:17:13.794Z,11.37
2022-10-23T20:20:17.232Z,11.20
2022-10-23T20:23:20.457Z,10.30
2022-10-23T20:26:25.209Z,11.70
2022-10-23T20:29:28.227Z,11.20
2022-10-23T20:32:31.239Z,11.00
2022-10-23T20:35:39.555Z,10.33
2022-10-23T20:38:42.641Z,10.43
2022-10-23T20:41:47.387Z,10.70
2022-10-23T20:44:50.526Z,10.00
2022-10-23T20:47:56.128Z,10.77
2022-10-23T20:51:04.029Z,9.50
2022-10-23T20:54:07.845Z,10.37
2022-10-23T20:57:14.166Z,10.20
2022-10-23T21:00:19.159Z,10.50
2022-10-23T21:03:22.570Z,11.00
2022-10-23T21:06:27.251Z,11.20
2022-10-23T21:09:31.324Z,9.93
2022-10-23T21:12:35.893Z,9.60
2022-10-23T21:15:39.232Z,9.60
2022-10-23T21:18:46.892Z,10.40
2022-10-23T21:21:50.319Z,9.60
2022-10-23T21:24:55.102Z,9.77
2022-10-23T21:27:59.656Z,10.03
2022-10-23T21:31:08.045Z,9.53
2022-10-23T21:37:15.226Z,10.40
2022-10-23T21:40:18.986Z,10.43
2022-10-23T21:43:23.446Z,9.63
2022-10-23T21:46:28.037Z,9.83
2022-10-23T21:49:31.105Z,10.80
2022-10-23T21:52:34.346Z,9.17
2022-10-23T21:55:37.893Z,10.00
2022-10-23T21:58:42.530Z,9.77
2022-10-23T22:01:47.651Z,10.67
2022-10-23T22:04:51.187Z,10.20
2022-10-23T22:07:57.370Z,10.17
2022-10-23T22:11:00.421Z,10.13
2022-10-23T22:14:05.009Z,10.70
2022-10-23T22:17:08.145Z,10.60
2022-10-23T22:20:12.874Z,10.87
2022-10-23T22:23:16.198Z,10.80
2022-10-23T22:26:25.131Z,11.20
2022-10-23T22:29:31.150Z,10.77
2022-10-23T22:32:35.717Z,9.97
2022-10-23T22:35:38.804Z,11.30
2022-10-23T22:38:42.293Z,11.07
2022-10-23T22:41:45.392Z,11.10
2022-10-23T22:44:50.162Z,10.90
2022-10-23T22:47:53.356Z,10.43
2022-10-23T22:50:57.262Z,10.23
2022-10-23T22:54:01.658Z,10.60
2022-10-23T22:57:05.040Z,11.10
2022-10-23T23:00:10.530Z,11.50
2022-10-23T23:03:13.787Z,11.47
2022-10-23T23:06:17.718Z,11.93
2022-10-23T23:09:20.814Z,11.80
2022-10-23T23:12:24.058Z,10.97
2022-10-23T23:15:29.388Z,11.00
2022-10-23T23:18:33.574Z,11.60
2022-10-23T23:21:36.646Z,11.00
2022-10-23T23:24:40.229Z,11.83
2022-10-23T23:27:44.204Z,12.30
2022-10-23T23:30:49.847Z,12.83
2022-10-23T23:33:53.818Z,13.57
2022-10-23T23:36:57.909Z,12.10
2022-10-23T23:40:01.056Z,12.83
2022-10-23T23:43:04.450Z,13.97
2022-10-23T23:46:09.316Z,13.90
2022-10-23T23:49:12.837Z,13.40
2022-10-23T23:52:16.194Z,13.57
2022-10-23T23:55:21.399Z,15.43
2022-10-23T23:58:24.771Z,14.03
